sensor_id;sensor_type;location;lat;lon;timestamp;temperature;humidity
27534;DHT22;14973;51.460;7.008;2022-11-13T00:01:58;9.10;99.90
27534;DHT22;14973;51.460;7.008;2022-11-13T00:04:24;9.00;99.90
27534;DHT22;14973;51.460;7.008;2022-11-13T00:06:50;8.90;99.90
27534;DHT22;14973;51.460;7.008;2022-11-13T00:09:15;8.90;99.90
27534;DHT22;14973;51.460;7.008;2022-11-13T00:11:41;8.80;99.90
27534;DHT22;14973;51.460;7.008;2022-11-13T00:14:06;8.80;99.90
27534;DHT22;14973;51.460;7.008;2022-11-13T00:16:32;8.80;99.90
27534;DHT22;14973;51.460;7.008;2022-11-13T00:18:58;8.70;99.90
27534;DHT22;14973;51.460;7.008;2022-11-13T00:21:24;8.70;99.90
27534;DHT22;14973;51.460;7.008;2022-11-13T00:23:52;8.70;99.90
27534;DHT22;14973;51.460;7.008;2022-11-13T00:26:20;8.60;99.90
27534;DHT22;14973;51.460;7.008;2022-11-13T00:28:46;8.70;99.90
27534;DHT22;14973;51.460;7.008;2022-11-13T00:31:13;8.70;99.90
27534;DHT22;14973;51.460;7.008;2022-11-13T00:33:39;8.70;99.90
27534;DHT22;14973;51.460;7.008;2022-11-13T00:36:11;8.80;99.90
27534;DHT22;14973;51.460;7.008;2022-11-13T00:38:38;8.80;99.90
27534;DHT22;14973;51.460;7.008;2022-11-13T00:41:04;8.80;99.90
27534;DHT22;14973;51.460;7.008;2022-11-13T00:43:29;8.90;99.90
27534;DHT22;14973;51.460;7.008;2022-11-13T00:45:55;9.00;99.90
27534;DHT22;14973;51.460;7.008;2022-11-13T00:48:21;9.00;99.90
27534;DHT22;14973;51.460;7.008;2022-11-13T00:50:47;8.90;99.90
27534;DHT22;14973;51.460;7.008;2022-11-13T00:53:13;9.00;99.90
27534;DHT22;14973;51.460;7.008;2022-11-13T00:55:39;9.00;99.90
27534;DHT22;14973;51.460;7.008;2022-11-13T00:58:04;8.90;99.90
27534;DHT22;14973;51.460;7.008;2022-11-13T01:00:31;8.90;99.90
27534;DHT22;14973;51.460;7.008;2022-11-13T01:02:57;8.80;99.90
27534;DHT22;14973;51.460;7.008;2022-11-13T01:05:23;8.80;99.90
27534;DHT22;14973;51.460;7.008;2022-11-13T01:07:49;8.80;99.90
27534;DHT22;14973;51.460;7.008;2022-11-13T01:10:15;8.70;99.90
27534;DHT22;14973;51.460;7.008;2022-11-13T01:12:41;8.80;99.90
27534;DHT22;14973;51.460;7.008;2022-11-13T01:15:06;8.70;99.90
27534;DHT22;14973;51.460;7.008;2022-11-13T01:17:32;8.70;99.90
27534;DHT22;14973;51.460;7.008;2022-11-13T01:19:58;8.90;99.90
27534;DHT22;14973;51.460;7.008;2022-11-13T01:22:23;9.00;99.90
27534;DHT22;14973;51.460;7.008;2022-11-13T01:24:49;9.00;99.90
27534;DHT22;14973;51.460;7.008;2022-11-13T01:27:15;9.20;99.90
27534;DHT22;14973;51.460;7.008;2022-11-13T01:29:41;9.40;99.90
27534;DHT22;14973;51.460;7.008;2022-11-13T01:32:07;9.60;99.90
27534;DHT22;14973;51.460;7.008;2022-11-13T01:34:33;9.90;99.90
27534;DHT22;14973;51.460;7.008;2022-11-13T01:36:58;10.00;99.90
27534;DHT22;14973;51.460;7.008;2022-11-13T01:39:24;10.10;99.90
27534;DHT22;14973;51.460;7.008;2022-11-13T01:41:50;10.20;99.90
27534;DHT22;14973;51.460;7.008;2022-11-13T01:44:17;10.40;99.90
27534;DHT22;14973;51.460;7.008;2022-11-13T01:46:45;10.50;99.90
27534;DHT22;14973;51.460;7.008;2022-11-13T01:49:33;10.50;99.90
27534;DHT22;14973;51.460;7.008;2022-11-13T01:52:12;10.60;99.90
27534;DHT22;14973;51.460;7.008;2022-11-13T01:55:01;10.60;99.90
27534;DHT22;14973;51.460;7.008;2022-11-13T01:57:27;10.60;99.90
27534;DHT22;14973;51.460;7.008;2022-11-13T01:59:58;10.70;99.90
27534;DHT22;14973;51.460;7.008;2022-11-13T02:02:25;10.70;99.90
27534;DHT22;14973;51.460;7.008;2022-11-13T02:04:50;10.80;99.90
27534;DHT22;14973;51.460;7.008;2022-11-13T02:07:18;10.80;99.90
27534;DHT22;14973;51.460;7.008;2022-11-13T02:09:50;10.70;99.90
27534;DHT22;14973;51.460;7.008;2022-11-13T02:12:31;10.60;99.90
27534;DHT22;14973;51.460;7.008;2022-11-13T02:14:59;10.50;99.90
27534;DHT22;14973;51.460;7.008;2022-11-13T02:17:47;10.30;99.90
27534;DHT22;14973;51.460;7.008;2022-11-13T02:20:15;10.10;99.90
27534;DHT22;14973;51.460;7.008;2022-11-13T02:23:01;9.90;99.90
27534;DHT22;14973;51.460;7.008;2022-11-13T02:25:33;9.80;99.90
27534;DHT22;14973;51.460;7.008;2022-11-13T02:28:00;9.70;99.90
27534;DHT22;14973;51.460;7.008;2022-11-13T02:30:29;9.60;99.90
27534;DHT22;14973;51.460;7.008;2022-11-13T02:32:56;9.40;99.90
27534;DHT22;14973;51.460;7.008;2022-11-13T02:35:34;9.40;99.90
27534;DHT22;14973;51.460;7.008;2022-11-13T02:38:02;9.30;99.90
27534;DHT22;14973;51.460;7.008;2022-11-13T02:40:29;9.20;99.90
27534;DHT22;14973;51.460;7.008;2022-11-13T02:42:54;9.20;99.90
27534;DHT22;14973;51.460;7.008;2022-11-13T02:45:20;9.40;99.90
27534;DHT22;14973;51.460;7.008;2022-11-13T02:47:46;9.40;99.90
27534;DHT22;14973;51.460;7.008;2022-11-13T02:50:13;9.50;99.90
27534;DHT22;14973;51.460;7.008;2022-11-13T02:52:38;9.50;99.90
27534;DHT22;14973;51.460;7.008;2022-11-13T02:55:05;9.50;99.90
27534;DHT22;14973;51.460;7.008;2022-11-13T02:57:30;9.60;99.90
27534;DHT22;14973;51.460;7.008;2022-11-13T02:59:56;9.60;99.90
27534;DHT22;14973;51.460;7.008;2022-11-13T03:02:22;9.60;99.90
27534;DHT22;14973;51.460;7.008;2022-11-13T03:04:48;9.60;99.90
27534;DHT22;14973;51.460;7.008;2022-11-13T03:07:13;9.50;99.90
27534;DHT22;14973;51.460;7.008;2022-11-13T03:09:40;9.40;99.90
27534;DHT22;14973;51.460;7.008;2022-11-13T03:12:07;9.30;99.90
27534;DHT22;14973;51.460;7.008;2022-11-13T03:14:33;9.20;99.90
27534;DHT22;14973;51.460;7.008;2022-11-13T03:16:59;9.00;99.90
27534;DHT22;14973;51.460;7.008;2022-11-13T03:19:25;8.80;99.90
27534;DHT22;14973;51.460;7.008;2022-11-13T03:21:50;8.60;99.90
27534;DHT22;14973;51.460;7.008;2022-11-13T03:24:16;8.50;99.90
27534;DHT22;14973;51.460;7.008;2022-11-13T03:26:42;8.30;99.90
27534;DHT22;14973;51.460;7.008;2022-11-13T03:29:07;8.10;99.90
27534;DHT22;14973;51.460;7.008;2022-11-13T03:31:33;8.00;99.90
27534;DHT22;14973;51.460;7.008;2022-11-13T03:33:58;8.00;99.90
27534;DHT22;14973;51.460;7.008;2022-11-13T03:36:24;8.00;99.90
27534;DHT22;14973;51.460;7.008;2022-11-13T03:38:50;7.90;99.90
27534;DHT22;14973;51.460;7.008;2022-11-13T03:41:15;7.90;99.90
27534;DHT22;14973;51.460;7.008;2022-11-13T03:43:41;7.80;99.90
27534;DHT22;14973;51.460;7.008;2022-11-13T03:46:07;7.70;99.90
27534;DHT22;14973;51.460;7.008;2022-11-13T03:48:33;7.60;99.90
27534;DHT22;14973;51.460;7.008;2022-11-13T03:50:59;7.60;99.90
27534;DHT22;14973;51.460;7.008;2022-11-13T03:53:25;7.40;99.90
27534;DHT22;14973;51.460;7.008;2022-11-13T03:55:50;7.40;99.90
27534;DHT22;14973;51.460;7.008;2022-11-13T03:58:17;7.30;99.90
27534;DHT22;14973;51.460;7.008;2022-11-13T04:00:43;7.30;99.90
27534;DHT22;14973;51.460;7.008;2022-11-13T04:03:09;7.20;99.90
27534;DHT22;14973;51.460;7.008;2022-11-13T04:05:35;7.10;99.90
27534;DHT22;14973;51.460;7.008;2022-11-13T04:08:01;7.20;99.90
27534;DHT22;14973;51.460;7.008;2022-11-13T04:10:27;7.30;99.90
27534;DHT22;14973;51.460;7.008;2022-11-13T04:12:53;7.50;99.90
27534;DHT22;14973;51.460;7.008;2022-11-13T04:15:18;8.00;99.90
27534;DHT22;14973;51.460;7.008;2022-11-13T04:17:44;8.50;99.90
27534;DHT22;14973;51.460;7.008;2022-11-13T04:20:10;8.90;99.90
27534;DHT22;14973;51.460;7.008;2022-11-13T04:22:35;9.10;99.90
27534;DHT22;14973;51.460;7.008;2022-11-13T04:25:01;9.30;99.90
27534;DHT22;14973;51.460;7.008;2022-11-13T04:27:27;9.40;99.90
27534;DHT22;14973;51.460;7.008;2022-11-13T04:29:52;9.60;99.90
27534;DHT22;14973;51.460;7.008;2022-11-13T04:32:18;9.80;99.90
27534;DHT22;14973;51.460;7.008;2022-11-13T04:34:43;10.00;99.90
27534;DHT22;14973;51.460;7.008;2022-11-13T04:37:09;10.10;99.90
27534;DHT22;14973;51.460;7.008;2022-11-13T04:39:35;10.10;99.90
27534;DHT22;14973;51.460;7.008;2022-11-13T04:42:00;10.30;99.90
27534;DHT22;14973;51.460;7.008;2022-11-13T04:44:44;10.30;99.90
27534;DHT22;14973;51.460;7.008;2022-11-13T04:47:12;10.30;99.90
27534;DHT22;14973;51.460;7.008;2022-11-13T04:49:38;10.20;99.90
27534;DHT22;14973;51.460;7.008;2022-11-13T04:52:03;10.20;99.90
27534;DHT22;14973;51.460;7.008;2022-11-13T04:54:29;10.20;99.90
27534;DHT22;14973;51.460;7.008;2022-11-13T04:56:55;10.20;99.90
27534;DHT22;14973;51.460;7.008;2022-11-13T04:59:20;10.10;99.90
27534;DHT22;14973;51.460;7.008;2022-11-13T05:01:46;10.00;99.90
27534;DHT22;14973;51.460;7.008;2022-11-13T05:04:13;9.90;99.90
27534;DHT22;14973;51.460;7.008;2022-11-13T05:06:39;9.90;99.90
27534;DHT22;14973;51.460;7.008;2022-11-13T05:09:05;9.80;99.90
27534;DHT22;14973;51.460;7.008;2022-11-13T05:11:31;9.80;99.90
27534;DHT22;14973;51.460;7.008;2022-11-13T05:13:57;9.80;99.90
27534;DHT22;14973;51.460;7.008;2022-11-13T05:16:22;9.80;99.90
27534;DHT22;14973;51.460;7.008;2022-11-13T05:18:48;9.90;99.90
27534;DHT22;14973;51.460;7.008;2022-11-13T05:21:13;10.00;99.90
27534;DHT22;14973;51.460;7.008;2022-11-13T05:23:39;9.90;99.90
27534;DHT22;14973;51.460;7.008;2022-11-13T05:26:07;9.90;99.90
27534;DHT22;14973;51.460;7.008;2022-11-13T05:28:33;9.90;99.90
27534;DHT22;14973;51.460;7.008;2022-11-13T05:31:07;9.90;99.90
27534;DHT22;14973;51.460;7.008;2022-11-13T05:33:34;10.00;99.90
27534;DHT22;14973;51.460;7.008;2022-11-13T05:36:06;10.00;99.90
27534;DHT22;14973;51.460;7.008;2022-11-13T05:38:32;9.90;99.90
27534;DHT22;14973;51.460;7.008;2022-11-13T05:41:15;9.90;99.90
27534;DHT22;14973;51.460;7.008;2022-11-13T05:43:41;9.90;99.90
27534;DHT22;14973;51.460;7.008;2022-11-13T05:46:18;9.90;99.90
27534;DHT22;14973;51.460;7.008;2022-11-13T05:48:46;9.80;99.90
27534;DHT22;14973;51.460;7.008;2022-11-13T05:51:14;9.60;99.90
27534;DHT22;14973;51.460;7.008;2022-11-13T05:53:41;9.60;99.90
27534;DHT22;14973;51.460;7.008;2022-11-13T05:58:35;9.50;99.90
27534;DHT22;14973;51.460;7.008;2022-11-13T06:01:25;9.50;99.90
27534;DHT22;14973;51.460;7.008;2022-11-13T06:03:51;9.60;99.90
27534;DHT22;14973;51.460;7.008;2022-11-13T06:06:19;9.40;99.90
27534;DHT22;14973;51.460;7.008;2022-11-13T06:08:46;9.40;99.90
27534;DHT22;14973;51.460;7.008;2022-11-13T06:11:20;9.50;99.90
27534;DHT22;14973;51.460;7.008;2022-11-13T06:13:47;9.50;99.90
27534;DHT22;14973;51.460;7.008;2022-11-13T06:16:14;9.40;99.90
27534;DHT22;14973;51.460;7.008;2022-11-13T06:18:42;9.30;99.90
27534;DHT22;14973;51.460;7.008;2022-11-13T06:21:16;9.10;99.90
27534;DHT22;14973;51.460;7.008;2022-11-13T06:23:43;8.90;99.90
27534;DHT22;14973;51.460;7.008;2022-11-13T06:26:11;8.70;99.90
27534;DHT22;14973;51.460;7.008;2022-11-13T06:28:37;8.50;99.90
27534;DHT22;14973;51.460;7.008;2022-11-13T06:31:04;8.30;99.90
27534;DHT22;14973;51.460;7.008;2022-11-13T06:33:30;8.10;99.90
27534;DHT22;14973;51.460;7.008;2022-11-13T06:35:56;8.00;99.90
27534;DHT22;14973;51.460;7.008;2022-11-13T06:38:22;7.90;99.90
27534;DHT22;14973;51.460;7.008;2022-11-13T06:40:48;7.80;99.90
27534;DHT22;14973;51.460;7.008;2022-11-13T06:43:14;7.70;99.90
27534;DHT22;14973;51.460;7.008;2022-11-13T06:45:40;7.50;99.90
27534;DHT22;14973;51.460;7.008;2022-11-13T06:48:05;7.40;99.90
27534;DHT22;14973;51.460;7.008;2022-11-13T06:50:31;7.30;99.90
27534;DHT22;14973;51.460;7.008;2022-11-13T06:52:56;7.20;99.90
27534;DHT22;14973;51.460;7.008;2022-11-13T06:55:22;7.10;99.90
27534;DHT22;14973;51.460;7.008;2022-11-13T06:57:47;7.00;99.90
27534;DHT22;14973;51.460;7.008;2022-11-13T07:00:13;6.90;99.90
27534;DHT22;14973;51.460;7.008;2022-11-13T07:02:39;6.80;99.90
27534;DHT22;14973;51.460;7.008;2022-11-13T07:05:05;6.80;99.90
27534;DHT22;14973;51.460;7.008;2022-11-13T07:07:30;6.80;99.90
27534;DHT22;14973;51.460;7.008;2022-11-13T07:09:56;6.70;99.90
27534;DHT22;14973;51.460;7.008;2022-11-13T07:12:21;6.60;99.90
27534;DHT22;14973;51.460;7.008;2022-11-13T07:14:47;6.60;99.90
27534;DHT22;14973;51.460;7.008;2022-11-13T07:17:13;6.50;99.90
27534;DHT22;14973;51.460;7.008;2022-11-13T07:19:38;6.50;99.90
27534;DHT22;14973;51.460;7.008;2022-11-13T07:22:04;6.60;99.90
27534;DHT22;14973;51.460;7.008;2022-11-13T07:24:29;6.60;99.90
27534;DHT22;14973;51.460;7.008;2022-11-13T07:26:55;6.40;99.90
27534;DHT22;14973;51.460;7.008;2022-11-13T07:29:20;6.50;99.90
27534;DHT22;14973;51.460;7.008;2022-11-13T07:31:46;6.50;99.90
27534;DHT22;14973;51.460;7.008;2022-11-13T07:34:11;6.40;99.90
27534;DHT22;14973;51.460;7.008;2022-11-13T07:36:39;6.40;99.90
27534;DHT22;14973;51.460;7.008;2022-11-13T07:39:04;6.40;99.90
27534;DHT22;14973;51.460;7.008;2022-11-13T07:41:30;6.40;99.90
27534;DHT22;14973;51.460;7.008;2022-11-13T07:43:55;6.40;99.90
27534;DHT22;14973;51.460;7.008;2022-11-13T07:46:21;6.40;99.90
27534;DHT22;14973;51.460;7.008;2022-11-13T07:48:46;6.40;99.90
27534;DHT22;14973;51.460;7.008;2022-11-13T07:51:12;6.50;99.90
27534;DHT22;14973;51.460;7.008;2022-11-13T07:53:38;6.40;99.90
27534;DHT22;14973;51.460;7.008;2022-11-13T07:56:04;6.50;99.90
27534;DHT22;14973;51.460;7.008;2022-11-13T07:58:29;6.50;99.90
27534;DHT22;14973;51.460;7.008;2022-11-13T08:01:00;6.60;99.90
27534;DHT22;14973;51.460;7.008;2022-11-13T08:03:26;6.70;99.90
27534;DHT22;14973;51.460;7.008;2022-11-13T08:05:52;6.80;99.90
27534;DHT22;14973;51.460;7.008;2022-11-13T08:08:23;6.80;99.90
27534;DHT22;14973;51.460;7.008;2022-11-13T08:10:49;6.90;99.90
27534;DHT22;14973;51.460;7.008;2022-11-13T08:13:14;6.80;99.90
27534;DHT22;14973;51.460;7.008;2022-11-13T08:15:40;6.90;99.90
27534;DHT22;14973;51.460;7.008;2022-11-13T08:18:06;6.90;99.90
27534;DHT22;14973;51.460;7.008;2022-11-13T08:20:32;6.90;99.90
27534;DHT22;14973;51.460;7.008;2022-11-13T08:22:59;6.90;99.90
27534;DHT22;14973;51.460;7.008;2022-11-13T08:25:26;7.00;99.90
27534;DHT22;14973;51.460;7.008;2022-11-13T08:27:52;7.00;99.90
27534;DHT22;14973;51.460;7.008;2022-11-13T08:30:19;7.10;99.90
27534;DHT22;14973;51.460;7.008;2022-11-13T08:32:46;7.10;99.90
27534;DHT22;14973;51.460;7.008;2022-11-13T08:35:12;7.20;99.90
27534;DHT22;14973;51.460;7.008;2022-11-13T08:37:38;7.30;99.90
27534;DHT22;14973;51.460;7.008;2022-11-13T08:40:04;7.30;99.90
27534;DHT22;14973;51.460;7.008;2022-11-13T08:42:29;7.40;99.90
27534;DHT22;14973;51.460;7.008;2022-11-13T08:44:55;7.40;99.90
27534;DHT22;14973;51.460;7.008;2022-11-13T08:47:21;7.50;99.90
27534;DHT22;14973;51.460;7.008;2022-11-13T08:49:46;7.50;99.90
27534;DHT22;14973;51.460;7.008;2022-11-13T08:52:13;7.50;99.90
27534;DHT22;14973;51.460;7.008;2022-11-13T08:54:38;7.60;99.90
27534;DHT22;14973;51.460;7.008;2022-11-13T08:57:04;7.80;99.90
27534;DHT22;14973;51.460;7.008;2022-11-13T08:59:30;7.90;99.90
27534;DHT22;14973;51.460;7.008;2022-11-13T09:01:55;8.00;99.90
27534;DHT22;14973;51.460;7.008;2022-11-13T09:04:26;8.10;99.90
27534;DHT22;14973;51.460;7.008;2022-11-13T09:06:52;8.20;99.90
27534;DHT22;14973;51.460;7.008;2022-11-13T09:09:18;8.40;99.90
27534;DHT22;14973;51.460;7.008;2022-11-13T09:11:44;8.50;99.90
27534;DHT22;14973;51.460;7.008;2022-11-13T09:14:10;8.60;99.90
27534;DHT22;14973;51.460;7.008;2022-11-13T09:16:36;8.80;99.90
27534;DHT22;14973;51.460;7.008;2022-11-13T09:19:02;9.00;99.90
27534;DHT22;14973;51.460;7.008;2022-11-13T09:21:28;9.20;99.90
27534;DHT22;14973;51.460;7.008;2022-11-13T09:23:54;9.50;99.90
27534;DHT22;14973;51.460;7.008;2022-11-13T09:26:20;9.70;99.90
27534;DHT22;14973;51.460;7.008;2022-11-13T09:28:45;10.00;99.90
27534;DHT22;14973;51.460;7.008;2022-11-13T09:31:11;10.40;99.90
27534;DHT22;14973;51.460;7.008;2022-11-13T09:33:36;10.60;99.90
27534;DHT22;14973;51.460;7.008;2022-11-13T09:36:08;10.70;99.90
27534;DHT22;14973;51.460;7.008;2022-11-13T09:38:33;10.80;99.90
27534;DHT22;14973;51.460;7.008;2022-11-13T09:41:07;11.20;99.90
27534;DHT22;14973;51.460;7.008;2022-11-13T09:43:39;11.50;99.90
27534;DHT22;14973;51.460;7.008;2022-11-13T09:46:18;11.80;99.90
27534;DHT22;14973;51.460;7.008;2022-11-13T09:48:53;12.00;99.90
27534;DHT22;14973;51.460;7.008;2022-11-13T09:51:41;12.30;99.90
27534;DHT22;14973;51.460;7.008;2022-11-13T09:54:10;12.40;99.90
27534;DHT22;14973;51.460;7.008;2022-11-13T10:02:20;12.90;99.90
27534;DHT22;14973;51.460;7.008;2022-11-13T10:05:11;13.00;99.90
27534;DHT22;14973;51.460;7.008;2022-11-13T10:07:47;13.10;99.90
27534;DHT22;14973;51.460;7.008;2022-11-13T10:12:55;13.30;99.90
27534;DHT22;14973;51.460;7.008;2022-11-13T10:15:24;13.40;99.90
27534;DHT22;14973;51.460;7.008;2022-11-13T10:18:01;13.70;99.90
27534;DHT22;14973;51.460;7.008;2022-11-13T10:20:49;13.90;99.90
27534;DHT22;14973;51.460;7.008;2022-11-13T10:23:20;14.10;99.90
27534;DHT22;14973;51.460;7.008;2022-11-13T10:25:47;14.20;99.90
27534;DHT22;14973;51.460;7.008;2022-11-13T10:28:20;14.30;99.90
27534;DHT22;14973;51.460;7.008;2022-11-13T10:30:49;14.50;99.90
27534;DHT22;14973;51.460;7.008;2022-11-13T10:33:20;14.70;99.90
27534;DHT22;14973;51.460;7.008;2022-11-13T10:36:13;14.80;99.90
27534;DHT22;14973;51.460;7.008;2022-11-13T10:38:43;15.00;99.90
27534;DHT22;14973;51.460;7.008;2022-11-13T10:41:16;15.20;99.90
27534;DHT22;14973;51.460;7.008;2022-11-13T10:43:52;15.30;99.90
27534;DHT22;14973;51.460;7.008;2022-11-13T10:46:21;15.50;99.90
27534;DHT22;14973;51.460;7.008;2022-11-13T10:48:47;15.50;99.90
27534;DHT22;14973;51.460;7.008;2022-11-13T10:51:21;15.60;99.90
27534;DHT22;14973;51.460;7.008;2022-11-13T10:53:47;15.60;99.90
27534;DHT22;14973;51.460;7.008;2022-11-13T10:58:44;15.60;99.90
27534;DHT22;14973;51.460;7.008;2022-11-13T11:01:15;15.70;99.90
27534;DHT22;14973;51.460;7.008;2022-11-13T11:03:49;15.70;99.90
27534;DHT22;14973;51.460;7.008;2022-11-13T11:06:15;15.70;99.90
27534;DHT22;14973;51.460;7.008;2022-11-13T11:08:41;15.70;99.90
27534;DHT22;14973;51.460;7.008;2022-11-13T11:11:17;15.70;99.90
27534;DHT22;14973;51.460;7.008;2022-11-13T11:14:18;15.80;99.90
27534;DHT22;14973;51.460;7.008;2022-11-13T11:16:46;16.00;99.90
27534;DHT22;14973;51.460;7.008;2022-11-13T11:19:14;16.10;99.90
27534;DHT22;14973;51.460;7.008;2022-11-13T11:21:42;16.20;99.90
27534;DHT22;14973;51.460;7.008;2022-11-13T11:24:17;16.20;99.90
27534;DHT22;14973;51.460;7.008;2022-11-13T11:27:03;16.20;99.90
27534;DHT22;14973;51.460;7.008;2022-11-13T11:32:38;16.40;99.90
27534;DHT22;14973;51.460;7.008;2022-11-13T11:35:13;16.40;99.90
27534;DHT22;14973;51.460;7.008;2022-11-13T11:38:00;16.50;99.90
27534;DHT22;14973;51.460;7.008;2022-11-13T11:40:35;16.60;99.90
27534;DHT22;14973;51.460;7.008;2022-11-13T11:45:28;16.80;99.90
27534;DHT22;14973;51.460;7.008;2022-11-13T11:47:56;16.80;99.90
27534;DHT22;14973;51.460;7.008;2022-11-13T12:01:32;17.20;99.90
27534;DHT22;14973;51.460;7.008;2022-11-13T12:04:30;17.10;99.90
27534;DHT22;14973;51.460;7.008;2022-11-13T12:07:21;17.30;99.90
27534;DHT22;14973;51.460;7.008;2022-11-13T12:12:23;17.40;99.90
27534;DHT22;14973;51.460;7.008;2022-11-13T12:15:11;17.50;99.90
27534;DHT22;14973;51.460;7.008;2022-11-13T12:25:53;17.60;99.90
27534;DHT22;14973;51.460;7.008;2022-11-13T12:36:37;17.80;99.90
27534;DHT22;14973;51.460;7.008;2022-11-13T12:41:53;17.80;99.90
27534;DHT22;14973;51.460;7.008;2022-11-13T12:44:24;17.90;99.90
27534;DHT22;14973;51.460;7.008;2022-11-13T12:46:51;17.90;99.90
27534;DHT22;14973;51.460;7.008;2022-11-13T12:49:34;17.90;99.90
27534;DHT22;14973;51.460;7.008;2022-11-13T12:54:33;17.90;99.90
27534;DHT22;14973;51.460;7.008;2022-11-13T12:59:55;18.00;99.90
27534;DHT22;14973;51.460;7.008;2022-11-13T13:02:37;18.00;99.90
27534;DHT22;14973;51.460;7.008;2022-11-13T13:05:27;18.00;99.90
27534;DHT22;14973;51.460;7.008;2022-11-13T13:08:03;18.00;99.90
27534;DHT22;14973;51.460;7.008;2022-11-13T13:15:59;18.00;99.90
27534;DHT22;14973;51.460;7.008;2022-11-13T13:18:29;17.90;99.90
27534;DHT22;14973;51.460;7.008;2022-11-13T13:23:27;18.00;99.90
27534;DHT22;14973;51.460;7.008;2022-11-13T13:28:50;17.90;99.90
27534;DHT22;14973;51.460;7.008;2022-11-13T13:39:30;17.80;99.90
27534;DHT22;14973;51.460;7.008;2022-11-13T13:47:41;17.80;99.90
27534;DHT22;14973;51.460;7.008;2022-11-13T13:50:14;17.80;99.90
27534;DHT22;14973;51.460;7.008;2022-11-13T13:52:41;17.80;99.90
27534;DHT22;14973;51.460;7.008;2022-11-13T13:55:48;17.70;99.90
27534;DHT22;14973;51.460;7.008;2022-11-13T13:58:18;17.50;99.90
27534;DHT22;14973;51.460;7.008;2022-11-13T14:01:03;17.50;99.90
27534;DHT22;14973;51.460;7.008;2022-11-13T14:03:29;17.50;99.90
27534;DHT22;14973;51.460;7.008;2022-11-13T14:06:07;17.50;99.90
27534;DHT22;14973;51.460;7.008;2022-11-13T14:08:32;17.50;99.90
27534;DHT22;14973;51.460;7.008;2022-11-13T14:11:15;17.50;99.90
27534;DHT22;14973;51.460;7.008;2022-11-13T14:13:42;17.40;99.90
27534;DHT22;14973;51.460;7.008;2022-11-13T14:16:07;17.40;99.90
27534;DHT22;14973;51.460;7.008;2022-11-13T14:18:34;17.30;99.90
27534;DHT22;14973;51.460;7.008;2022-11-13T14:21:08;17.20;99.90
27534;DHT22;14973;51.460;7.008;2022-11-13T14:23:38;17.20;99.90
27534;DHT22;14973;51.460;7.008;2022-11-13T14:26:06;17.10;99.90
27534;DHT22;14973;51.460;7.008;2022-11-13T14:31:11;17.00;99.90
27534;DHT22;14973;51.460;7.008;2022-11-13T14:33:47;16.90;99.90
27534;DHT22;14973;51.460;7.008;2022-11-13T14:36:15;16.80;99.90
27534;DHT22;14973;51.460;7.008;2022-11-13T14:38:48;16.80;99.90
27534;DHT22;14973;51.460;7.008;2022-11-13T14:41:45;16.60;99.90
27534;DHT22;14973;51.460;7.008;2022-11-13T14:44:10;16.60;99.90
27534;DHT22;14973;51.460;7.008;2022-11-13T14:46:38;16.50;99.90
27534;DHT22;14973;51.460;7.008;2022-11-13T14:49:29;16.40;99.90
27534;DHT22;14973;51.460;7.008;2022-11-13T14:51:56;16.30;99.90
27534;DHT22;14973;51.460;7.008;2022-11-13T14:54:33;16.30;99.90
27534;DHT22;14973;51.460;7.008;2022-11-13T14:57:10;16.20;99.90
27534;DHT22;14973;51.460;7.008;2022-11-13T14:59:36;16.10;99.90
27534;DHT22;14973;51.460;7.008;2022-11-13T15:02:03;16.00;99.90
27534;DHT22;14973;51.460;7.008;2022-11-13T15:04:28;15.90;99.90
27534;DHT22;14973;51.460;7.008;2022-11-13T15:07:02;15.80;99.90
27534;DHT22;14973;51.460;7.008;2022-11-13T15:09:29;15.60;99.90
27534;DHT22;14973;51.460;7.008;2022-11-13T15:11:55;15.50;99.90
27534;DHT22;14973;51.460;7.008;2022-11-13T15:14:21;15.40;99.90
27534;DHT22;14973;51.460;7.008;2022-11-13T15:16:49;15.20;99.90
27534;DHT22;14973;51.460;7.008;2022-11-13T15:21:49;15.00;99.90
27534;DHT22;14973;51.460;7.008;2022-11-13T15:24:14;14.90;99.90
27534;DHT22;14973;51.460;7.008;2022-11-13T15:26:40;14.70;99.90
27534;DHT22;14973;51.460;7.008;2022-11-13T15:29:06;14.60;99.90
27534;DHT22;14973;51.460;7.008;2022-11-13T15:31:41;14.50;99.90
27534;DHT22;14973;51.460;7.008;2022-11-13T15:34:11;14.50;99.90
27534;DHT22;14973;51.460;7.008;2022-11-13T15:36:37;14.40;99.90
27534;DHT22;14973;51.460;7.008;2022-11-13T15:39:05;14.30;99.90
27534;DHT22;14973;51.460;7.008;2022-11-13T15:41:31;14.20;99.90
27534;DHT22;14973;51.460;7.008;2022-11-13T15:43:59;14.20;99.90
27534;DHT22;14973;51.460;7.008;2022-11-13T15:46:25;14.00;99.90
27534;DHT22;14973;51.460;7.008;2022-11-13T15:48:51;14.00;99.90
27534;DHT22;14973;51.460;7.008;2022-11-13T15:53:55;13.80;99.90
27534;DHT22;14973;51.460;7.008;2022-11-13T15:56:22;13.70;99.90
27534;DHT22;14973;51.460;7.008;2022-11-13T15:58:49;13.60;99.90
27534;DHT22;14973;51.460;7.008;2022-11-13T16:01:15;13.40;99.90
27534;DHT22;14973;51.460;7.008;2022-11-13T16:03:41;13.30;99.90
27534;DHT22;14973;51.460;7.008;2022-11-13T16:06:12;13.10;99.90
27534;DHT22;14973;51.460;7.008;2022-11-13T16:08:39;13.10;99.90
27534;DHT22;14973;51.460;7.008;2022-11-13T16:11:04;13.00;99.90
27534;DHT22;14973;51.460;7.008;2022-11-13T16:13:30;12.90;99.90
27534;DHT22;14973;51.460;7.008;2022-11-13T16:15:56;12.80;99.90
27534;DHT22;14973;51.460;7.008;2022-11-13T16:18:28;12.60;99.90
27534;DHT22;14973;51.460;7.008;2022-11-13T16:20:55;12.40;99.90
27534;DHT22;14973;51.460;7.008;2022-11-13T16:23:21;12.30;99.90
27534;DHT22;14973;51.460;7.008;2022-11-13T16:25:47;12.20;99.90
27534;DHT22;14973;51.460;7.008;2022-11-13T16:28:17;12.00;99.90
27534;DHT22;14973;51.460;7.008;2022-11-13T16:30:44;11.90;99.90
27534;DHT22;14973;51.460;7.008;2022-11-13T16:33:10;11.80;99.90
27534;DHT22;14973;51.460;7.008;2022-11-13T16:35:36;11.80;99.90
27534;DHT22;14973;51.460;7.008;2022-11-13T16:38:04;11.80;99.90
27534;DHT22;14973;51.460;7.008;2022-11-13T16:40:34;12.00;99.90
27534;DHT22;14973;51.460;7.008;2022-11-13T16:42:59;12.10;99.90
27534;DHT22;14973;51.460;7.008;2022-11-13T16:45:25;12.10;99.90
27534;DHT22;14973;51.460;7.008;2022-11-13T16:47:51;12.00;99.90
27534;DHT22;14973;51.460;7.008;2022-11-13T16:50:19;12.00;99.90
27534;DHT22;14973;51.460;7.008;2022-11-13T16:52:45;12.00;99.90
27534;DHT22;14973;51.460;7.008;2022-11-13T16:55:11;12.10;99.90
27534;DHT22;14973;51.460;7.008;2022-11-13T16:57:37;12.20;99.90
27534;DHT22;14973;51.460;7.008;2022-11-13T17:00:05;12.30;99.90
27534;DHT22;14973;51.460;7.008;2022-11-13T17:02:31;12.40;99.90
27534;DHT22;14973;51.460;7.008;2022-11-13T17:04:57;12.40;99.90
27534;DHT22;14973;51.460;7.008;2022-11-13T17:07:23;12.40;99.90
27534;DHT22;14973;51.460;7.008;2022-11-13T17:09:48;12.40;99.90
27534;DHT22;14973;51.460;7.008;2022-11-13T17:12:14;12.20;99.90
27534;DHT22;14973;51.460;7.008;2022-11-13T17:14:39;12.30;99.90
27534;DHT22;14973;51.460;7.008;2022-11-13T17:17:07;12.20;99.90